Felker Army Air Field
KFAF : now visible

Airfield :











YOU CAN JOIN US ON...

 
LOGIN :

Register | Disclaimer

   EN    FR    IT 

 









Legend :    VFR   Marginal VFR   IFR   Intensive IFR   Very Intensive IFR
Visi :
Ceiling :
>= 8 km
>= 3000ft
5 to 8 km
1000 to 3000 ft
1500m to 5 km
500 to 1000 ft
800 to 1500m
200 to 500 ft
< 800m
< 200 ft
Symbols :   Thunderstorms  Fog  Heavy snow  Heavy precipitations  Wind > 20 kt






- Airport Elevation : 12 ft


KFAF - Felker Army Air Field

EXPIRED METARs :
  • 091507Z 20003KT 5/8SM FG VV003 09/08 A3013 RMK AO2A SLP206 RVRNO $

TAF AMD TAF KFAF
Valid from the 09 at 12:00 until the 10 at 17:00 UTC


091230Z 0912/1017 24006KT 1600 BR OVC003 QNH3005INS
TEMPO 0912/0914 0800 FG VV002
BECMG 0914/0915 24006KT 8000 BR OVC005 QNH2996INS
BECMG 0917/0918 21006KT 9999 NSW BKN010 QNH2996INS
BECMG 1002/1003 22012KT 9999 FEW010 BKN020 QNH2996INS TX17/1011Z TN09/0912Z



MET'MAP, your aeronautical weather chart ! - Copyright ORBIFLY December 2007 - Disclaimer

ORBIFLY MET'MAP TEAM :

Programming & Development : Alexandra Zaïnal
Concept & original design : Baudouin d'Aumeries
Assistance for programming : Marc-Olivier Méhu
Technical & hardware support : Manuel Goepfert

Contact : metmap@orbifly.com




SOURCES & CREDITS :

   NOAA       Earth
Advisory